Ridgeville, Alabama
Current Conditions -  °F | °C
As of 7:35 PM on Tuesday 25 Nov 2014 (Local Time) from KGAD Reporting Station
Few Clouds Few Clouds  
Wind Chill:   Ceiling: Unl
Heat Index:   Visibility: 10mi
Dew Point: -2°   Wind: 7mph
Humidity: 46%   Direction: 330°NNW
Pressure: 30.09"   Gusts: NA
Location:  34.0771°N, 86.0689°W
Report Text: KGAD 260135Z 33006KT 10SM FEW120 09/M02 A3009 RMK AO1
Loading
Personal Weather Stations






























Interactive Weather Map New forecast layout! Learn more

10-Day Weather Forecast

Advertisements
Track Severe Weather on mobile